Time;durP1;ratioP1;P1;durP2;ratioP2;P2;SDS_P1;SDS_P2;PMS_P1;PMS_P2;Temp;Humidity;BMP_temperature;BMP_pressure;BME280_temperature;BME280_humidity;BME280_pressure;Samples;Min_cycle;Max_cycle;Signal;HPM_P1;HPM_P2
2021/09/08 07:14:10;;;;;;;9.20;7.30;;;;;;;;;;6180556;22;20400;-53
2021/09/08 07:16:36;;;;;;;8.40;7.18;;;;;;;;;;6238921;23;20445;-48
2021/09/08 07:19:03;;;;;;;7.80;7.00;;;;;;;;;;6239968;23;20341;-48
2021/09/08 07:21:29;;;;;;;13.77;12.30;;;;;;;;;;6240167;23;20673;-50
2021/09/08 07:23:55;;;;;;;81.40;74.60;;;;;;;;;;6239971;23;20356;-51
2021/09/08 07:26:21;;;;;;;105.65;97.00;;;;;;;;;;6239501;23;20330;-50
2021/09/08 07:28:47;;;;;;;106.23;97.53;;;;;;;;;;6240245;23;20872;-48
2021/09/08 07:31:13;;;;;;;101.50;93.30;;;;;;;;;;6239611;23;20387;-63
2021/09/08 07:33:39;;;;;;;139.77;128.65;;;;;;;;;;6241084;23;20335;-58
2021/09/08 07:36:06;;;;;;;119.70;110.23;;;;;;;;;;6240955;23;20330;-57
2021/09/08 07:38:32;;;;;;;107.82;99.20;;;;;;;;;;6241984;23;20465;-57
2021/09/08 07:40:59;;;;;;;98.82;90.80;;;;;;;;;;6241659;23;20330;-60
2021/09/08 07:43:25;;;;;;;91.88;84.45;;;;;;;;;;6241958;23;20523;-57
2021/09/08 07:45:51;;;;;;;84.78;77.95;;;;;;;;;;6241668;23;20335;-59
2021/09/08 07:48:19;;;;;;;75.63;69.53;;;;;;;;;;6241651;23;20334;-60
2021/09/08 07:50:45;;;;;;;66.00;60.50;;;;;;;;;;6241131;23;20349;-59
2021/09/08 07:53:12;;;;;;;60.20;55.13;;;;;;;;;;6241777;23;20338;-59
2021/09/08 07:55:38;;;;;;;56.30;51.50;;;;;;;;;;6241472;23;20334;-59
2021/09/08 07:58:04;;;;;;;51.85;47.45;;;;;;;;;;6241838;23;20390;-60
2021/09/08 08:00:33;;;;;;;50.20;45.92;;;;;;;;;;6241888;23;20334;-65
2021/09/08 08:02:59;;;;;;;47.00;43.10;;;;;;;;;;6241785;23;20380;-61
2021/09/08 08:05:25;;;;;;;40.40;36.90;;;;;;;;;;6241126;23;20790;-59
2021/09/08 08:07:51;;;;;;;36.77;33.63;;;;;;;;;;6240404;23;20806;-60
2021/09/08 08:10:18;;;;;;;34.80;31.80;;;;;;;;;;6240102;23;20342;-58
2021/09/08 08:12:46;;;;;;;27.63;25.03;;;;;;;;;;6241053;23;20354;-61
2021/09/08 08:15:13;;;;;;;15.80;14.27;;;;;;;;;;6240097;23;20480;-52
2021/09/08 08:17:40;;;;;;;12.75;11.10;;;;;;;;;;6240634;23;20366;-56
2021/09/08 08:20:08;;;;;;;14.25;11.45;;;;;;;;;;6240830;23;20645;-55
2021/09/08 08:22:35;;;;;;;10.82;9.52;;;;;;;;;;6241081;23;20374;-50
2021/09/08 08:25:01;;;;;;;9.80;8.35;;;;;;;;;;6241365;23;20341;-52
2021/09/08 08:27:27;;;;;;;10.98;8.20;;;;;;;;;;6241044;23;20379;-48
2021/09/08 08:29:53;;;;;;;8.97;7.40;;;;;;;;;;6241128;23;20334;-50
2021/09/08 08:32:19;;;;;;;8.68;6.57;;;;;;;;;;6240912;23;20449;-51
2021/09/08 08:34:45;;;;;;;8.15;6.70;;;;;;;;;;6240925;23;20322;-52
2021/09/08 08:37:13;;;;;;;9.13;6.50;;;;;;;;;;6213080;23;20604;-50
2021/09/08 08:39:39;;;;;;;8.35;6.32;;;;;;;;;;6213635;23;20342;-50
2021/09/08 08:42:06;;;;;;;9.50;6.07;;;;;;;;;;6241059;23;20508;-57
2021/09/08 08:44:33;;;;;;;7.30;6.43;;;;;;;;;;6242798;23;20330;-49
2021/09/08 08:47:00;;;;;;;7.53;5.53;;;;;;;;;;6217045;23;20338;-54
2021/09/08 08:49:27;;;;;;;8.57;6.22;;;;;;;;;;6216335;23;20375;-53
2021/09/08 08:51:56;;;;;;;8.23;5.85;;;;;;;;;;6243598;23;20351;-51
2021/09/08 08:54:22;;;;;;;7.18;5.47;;;;;;;;;;6243136;23;20352;-50
2021/09/08 08:56:48;;;;;;;7.63;6.05;;;;;;;;;;6244295;23;20333;-51
2021/09/08 08:59:14;;;;;;;8.07;5.97;;;;;;;;;;6243773;23;20326;-52
2021/09/08 09:01:40;;;;;;;8.13;6.07;;;;;;;;;;6243755;23;20361;-57
2021/09/08 09:04:14;;;;;;;6.37;5.67;;;;;;;;;;6244070;23;20326;-55
2021/09/08 09:06:42;;;;;;;7.38;5.70;;;;;;;;;;6243957;23;20425;-58
2021/09/08 09:09:12;;;;;;;6.93;5.75;;;;;;;;;;6216207;23;20338;-58
2021/09/08 09:11:39;;;;;;;6.57;5.57;;;;;;;;;;6243954;23;20782;-55
2021/09/08 09:14:07;;;;;;;7.47;5.60;;;;;;;;;;6243795;23;20342;-57
2021/09/08 09:16:35;;;;;;;8.73;6.13;;;;;;;;;;6243862;23;20358;-59
2021/09/08 09:19:01;;;;;;;7.33;5.87;;;;;;;;;;6216998;23;20402;-58
2021/09/08 09:21:27;;;;;;;7.57;5.80;;;;;;;;;;6244111;23;20362;-56
2021/09/08 09:23:58;;;;;;;8.23;6.18;;;;;;;;;;6244007;23;20357;-57
2021/09/08 09:26:25;;;;;;;6.70;5.95;;;;;;;;;;6243299;23;20356;-59
2021/09/08 09:28:51;;;;;;;7.60;6.10;;;;;;;;;;6243549;23;20344;-58
2021/09/08 09:31:20;;;;;;;7.93;6.32;;;;;;;;;;6243648;23;20326;-58
2021/09/08 09:33:47;;;;;;;7.78;6.00;;;;;;;;;;6243873;23;20342;-58
2021/09/08 09:36:18;;;;;;;7.33;6.03;;;;;;;;;;6243695;23;20759;-55
2021/09/08 09:38:44;;;;;;;7.05;5.85;;;;;;;;;;6216215;23;20358;-58
2021/09/08 09:41:11;;;;;;;6.80;5.93;;;;;;;;;;6243572;23;20326;-52
2021/09/08 09:43:43;;;;;;;7.57;5.57;;;;;;;;;;6242838;23;20338;-58
2021/09/08 09:46:09;;;;;;;6.93;5.80;;;;;;;;;;6243305;23;20641;-54
2021/09/08 09:48:37;;;;;;;8.25;6.28;;;;;;;;;;6243672;23;20782;-54
2021/09/08 09:51:04;;;;;;;8.45;5.97;;;;;;;;;;6216621;23;20795;-57
2021/09/08 09:53:31;;;;;;;7.68;6.00;;;;;;;;;;6217189;23;20366;-56
2021/09/08 09:55:57;;;;;;;7.82;5.88;;;;;;;;;;6242721;23;20327;-52
2021/09/08 09:58:23;;;;;;;8.43;6.35;;;;;;;;;;6240420;23;20334;-56
2021/09/08 10:00:50;;;;;;;9.70;6.18;;;;;;;;;;6212087;23;20446;-55
2021/09/08 10:03:16;;;;;;;7.10;5.83;;;;;;;;;;6213662;23;20779;-54
2021/09/08 10:05:42;;;;;;;8.30;6.33;;;;;;;;;;6240228;23;20707;-56
2021/09/08 10:08:09;;;;;;;8.40;6.63;;;;;;;;;;6213344;23;20350;-54
2021/09/08 10:10:36;;;;;;;8.18;6.10;;;;;;;;;;6240116;23;20439;-53
2021/09/08 10:13:08;;;;;;;7.70;6.38;;;;;;;;;;6240605;23;20635;-58
2021/09/08 10:15:35;;;;;;;8.98;6.40;;;;;;;;;;6239459;23;20372;-54
2021/09/08 10:18:09;;;;;;;10.75;7.00;;;;;;;;;;6240271;23;20330;-55
2021/09/08 10:20:36;;;;;;;9.82;6.93;;;;;;;;;;6240221;23;20337;-54
2021/09/08 10:23:13;;;;;;;8.43;6.90;;;;;;;;;;6240797;23;20497;-53
2021/09/08 10:25:47;;;;;;;10.68;7.00;;;;;;;;;;6213384;23;20372;-54
2021/09/08 10:28:16;;;;;;;8.85;7.10;;;;;;;;;;6241214;23;20323;-53
2021/09/08 10:30:43;;;;;;;7.70;6.90;;;;;;;;;;6210764;23;20445;-51
2021/09/08 10:33:09;;;;;;;7.75;6.90;;;;;;;;;;6241282;23;20371;-49
2021/09/08 10:35:41;;;;;;;8.77;7.20;;;;;;;;;;6240071;23;20326;-52
2021/09/08 10:38:12;;;;;;;7.90;7.10;;;;;;;;;;6240305;23;20341;-51
2021/09/08 10:40:38;;;;;;;8.27;6.80;;;;;;;;;;6240554;23;20399;-54
2021/09/08 10:43:04;;;;;;;8.90;6.65;;;;;;;;;;6240935;23;20404;-51
2021/09/08 10:45:31;;;;;;;7.70;6.70;;;;;;;;;;6239719;23;20345;-53
2021/09/08 10:47:59;;;;;;;7.40;6.60;;;;;;;;;;6240980;23;20380;-53
2021/09/08 10:50:44;;;;;;;8.50;6.53;;;;;;;;;;6240426;23;20350;-54
2021/09/08 10:53:22;;;;;;;8.47;6.40;;;;;;;;;;6240417;23;20326;-55
2021/09/08 10:55:54;;;;;;;7.10;6.05;;;;;;;;;;6213539;23;20414;-55
2021/09/08 10:58:21;;;;;;;8.73;7.82;;;;;;;;;;6239913;23;20375;-52
2021/09/08 11:00:49;;;;;;;8.60;7.32;;;;;;;;;;6212573;23;20495;-51
2021/09/08 11:03:15;;;;;;;8.80;7.20;;;;;;;;;;6212811;23;20648;-51
2021/09/08 11:05:49;;;;;;;7.47;6.57;;;;;;;;;;6239370;23;20334;-51
2021/09/08 11:08:26;;;;;;;8.20;6.80;;;;;;;;;;6212431;23;20441;-51
2021/09/08 11:11:13;;;;;;;8.32;6.60;;;;;;;;;;6212960;23;20441;-54
2021/09/08 11:13:39;;;;;;;8.23;5.97;;;;;;;;;;6239086;23;20509;-59
2021/09/08 11:16:23;;;;;;;8.73;6.97;;;;;;;;;;6239839;23;20442;-55
2021/09/08 11:18:49;;;;;;;7.03;6.25;;;;;;;;;;6212867;23;20388;-52
2021/09/08 11:21:16;;;;;;;7.45;6.22;;;;;;;;;;6239723;23;20466;-54
2021/09/08 11:23:45;;;;;;;8.05;6.55;;;;;;;;;;6240245;23;20372;-59
2021/09/08 11:26:12;;;;;;;8.40;6.75;;;;;;;;;;6212458;23;20677;-60
2021/09/08 11:28:39;;;;;;;6.65;5.88;;;;;;;;;;6239832;23;20334;-58
2021/09/08 11:31:15;;;;;;;7.45;6.70;;;;;;;;;;6213183;23;20388;-50
2021/09/08 11:33:44;;;;;;;7.47;6.43;;;;;;;;;;6241828;23;20394;-50
2021/09/08 11:36:15;;;;;;;8.47;6.93;;;;;;;;;;6240652;23;20333;-52
2021/09/08 11:38:45;;;;;;;9.95;6.47;;;;;;;;;;6240506;23;20342;-48
2021/09/08 11:41:11;;;;;;;8.27;6.45;;;;;;;;;;6240235;23;20851;-48
2021/09/08 11:43:39;;;;;;;7.47;6.40;;;;;;;;;;6239218;23;20365;-48
2021/09/08 11:46:09;;;;;;;8.77;6.43;;;;;;;;;;6240422;23;21609;-50
2021/09/08 11:48:35;;;;;;;8.45;6.32;;;;;;;;;;6240989;23;20373;-50
2021/09/08 11:51:03;;;;;;;6.90;6.20;;;;;;;;;;6240668;23;20330;-50
2021/09/08 11:53:29;;;;;;;8.50;6.20;;;;;;;;;;6240364;23;20884;-49
2021/09/08 11:56:08;;;;;;;6.88;6.18;;;;;;;;;;6240975;23;20334;-53
2021/09/08 11:58:34;;;;;;;6.88;6.05;;;;;;;;;;6240529;23;20442;-51
2021/09/08 12:01:04;;;;;;;6.43;5.68;;;;;;;;;;6240443;23;20818;-49
2021/09/08 12:03:30;;;;;;;6.75;6.05;;;;;;;;;;6240498;23;20393;-52
2021/09/08 12:06:08;;;;;;;6.30;5.70;;;;;;;;;;6240764;23;20648;-49
2021/09/08 12:08:36;;;;;;;6.63;5.72;;;;;;;;;;6240787;23;20342;-50
2021/09/08 12:11:03;;;;;;;6.22;5.47;;;;;;;;;;6240799;23;20338;-48
2021/09/08 12:13:36;;;;;;;7.78;5.90;;;;;;;;;;6213191;23;20398;-51
2021/09/08 12:16:02;;;;;;;6.63;5.63;;;;;;;;;;6213483;23;20802;-50
2021/09/08 12:18:28;;;;;;;7.75;5.80;;;;;;;;;;6240339;23;20815;-49
2021/09/08 12:21:14;;;;;;;7.80;5.60;;;;;;;;;;6241008;23;20334;-47
2021/09/08 12:23:40;;;;;;;8.85;6.00;;;;;;;;;;6240912;23;20342;-47
2021/09/08 12:26:10;;;;;;;6.80;5.60;;;;;;;;;;6241247;23;20326;-48
2021/09/08 12:28:37;;;;;;;6.65;5.75;;;;;;;;;;6240404;23;20325;-48
2021/09/08 12:31:18;;;;;;;6.10;5.40;;;;;;;;;;6239737;23;20326;-55
2021/09/08 12:34:00;;;;;;;6.18;5.57;;;;;;;;;;6240335;23;20337;-59
2021/09/08 12:36:26;;;;;;;5.82;5.13;;;;;;;;;;6213742;23;20440;-59
2021/09/08 12:38:53;;;;;;;6.70;5.65;;;;;;;;;;6213297;23;20819;-64
2021/09/08 12:41:19;;;;;;;6.43;5.40;;;;;;;;;;6212507;23;20437;-54
2021/09/08 12:43:49;;;;;;;6.73;5.93;;;;;;;;;;6240305;23;20338;-58
2021/09/08 12:46:15;;;;;;;6.65;5.57;;;;;;;;;;6239349;23;20369;-55
2021/09/08 12:48:41;;;;;;;6.95;5.75;;;;;;;;;;6240435;23;20330;-54
2021/09/08 12:51:08;;;;;;;7.60;5.60;;;;;;;;;;6240456;23;20381;-56
2021/09/08 12:53:34;;;;;;;7.88;5.32;;;;;;;;;;6239745;23;20357;-55
2021/09/08 12:56:00;;;;;;;8.02;5.75;;;;;;;;;;6212978;23;20361;-56
2021/09/08 12:58:26;;;;;;;7.18;5.32;;;;;;;;;;6240289;23;20358;-56
2021/09/08 13:00:53;;;;;;;7.22;5.13;;;;;;;;;;6239369;23;20894;-54
2021/09/08 13:03:19;;;;;;;7.30;4.88;;;;;;;;;;6239933;23;20381;-55
2021/09/08 13:05:48;;;;;;;6.20;4.90;;;;;;;;;;6239144;23;20787;-56
2021/09/08 13:08:17;;;;;;;5.70;4.85;;;;;;;;;;6239543;23;20409;-49
2021/09/08 13:10:43;;;;;;;6.60;4.87;;;;;;;;;;6239613;23;20448;-52
2021/09/08 13:13:09;;;;;;;5.85;4.65;;;;;;;;;;6239996;23;20346;-53
2021/09/08 13:15:36;;;;;;;6.28;4.70;;;;;;;;;;6240237;23;20457;-46
2021/09/08 13:18:02;;;;;;;6.80;4.88;;;;;;;;;;6213430;23;20346;-49
2021/09/08 13:20:28;;;;;;;5.65;4.72;;;;;;;;;;6240033;23;20770;-50
2021/09/08 13:22:54;;;;;;;5.03;4.32;;;;;;;;;;6239990;23;20428;-51
2021/09/08 13:25:20;;;;;;;5.23;4.43;;;;;;;;;;6239894;23;20353;-53
2021/09/08 13:27:46;;;;;;;4.77;4.23;;;;;;;;;;6240382;23;20342;-51
2021/09/08 13:30:12;;;;;;;5.35;4.25;;;;;;;;;;6240029;23;20326;-52
2021/09/08 13:32:39;;;;;;;5.20;4.43;;;;;;;;;;6241866;23;20332;-49
2021/09/08 13:35:05;;;;;;;5.70;4.43;;;;;;;;;;6241958;23;20330;-55
2021/09/08 13:37:31;;;;;;;5.03;4.37;;;;;;;;;;6241717;23;20711;-50
2021/09/08 13:39:57;;;;;;;4.73;3.90;;;;;;;;;;6241686;23;20326;-52
2021/09/08 13:42:23;;;;;;;5.47;4.50;;;;;;;;;;6242067;23;20408;-53
2021/09/08 13:44:49;;;;;;;6.18;4.32;;;;;;;;;;6242090;23;20333;-52
2021/09/08 13:47:15;;;;;;;4.88;3.70;;;;;;;;;;6242562;23;20322;-53
2021/09/08 13:49:41;;;;;;;4.38;3.33;;;;;;;;;;6241533;23;20379;-56
2021/09/08 13:52:10;;;;;;;3.58;2.95;;;;;;;;;;6241123;23;20600;-54
2021/09/08 13:54:37;;;;;;;5.65;3.45;;;;;;;;;;6215510;23;20418;-59
2021/09/08 13:57:04;;;;;;;4.20;3.20;;;;;;;;;;6242358;23;20738;-57
2021/09/08 13:59:30;;;;;;;4.32;3.40;;;;;;;;;;6242272;23;20345;-59
2021/09/08 14:01:56;;;;;;;4.70;3.50;;;;;;;;;;6242298;23;20360;-60
2021/09/08 14:04:22;;;;;;;5.00;3.80;;;;;;;;;;6241418;23;20597;-59
2021/09/08 14:06:48;;;;;;;4.57;3.67;;;;;;;;;;6241756;23;20445;-59
2021/09/08 14:09:14;;;;;;;4.40;3.47;;;;;;;;;;6242618;23;20318;-60
2021/09/08 14:11:40;;;;;;;3.80;3.30;;;;;;;;;;6240904;23;20409;-58
2021/09/08 14:14:07;;;;;;;4.18;3.78;;;;;;;;;;6240837;23;20349;-57
2021/09/08 14:16:33;;;;;;;5.35;4.10;;;;;;;;;;6241932;23;20362;-58
2021/09/08 14:18:59;;;;;;;4.33;3.63;;;;;;;;;;6242406;23;20376;-57
2021/09/08 14:21:25;;;;;;;5.13;4.10;;;;;;;;;;6241487;23;20322;-58
2021/09/08 14:23:51;;;;;;;5.18;3.70;;;;;;;;;;6241527;23;20342;-54
2021/09/08 14:26:18;;;;;;;5.30;3.60;;;;;;;;;;6241909;23;20326;-55
2021/09/08 14:28:44;;;;;;;6.47;3.78;;;;;;;;;;6241243;23;20338;-56
2021/09/08 14:31:10;;;;;;;5.13;3.92;;;;;;;;;;6240713;23;20330;-55
2021/09/08 14:33:36;;;;;;;4.30;3.70;;;;;;;;;;6240549;23;20322;-53
2021/09/08 14:36:02;;;;;;;4.93;4.07;;;;;;;;;;6214081;23;20340;-55
2021/09/08 14:38:29;;;;;;;5.13;3.95;;;;;;;;;;6214180;23;20350;-52
2021/09/08 14:40:55;;;;;;;4.82;3.90;;;;;;;;;;6240592;23;20380;-52
2021/09/08 14:43:23;;;;;;;5.55;4.07;;;;;;;;;;6241239;23;20369;-55
2021/09/08 14:45:49;;;;;;;5.75;3.83;;;;;;;;;;6240240;23;20579;-51
2021/09/08 14:48:15;;;;;;;5.15;3.90;;;;;;;;;;6240591;23;20774;-58
2021/09/08 14:50:41;;;;;;;5.28;4.22;;;;;;;;;;6213302;23;20706;-50
2021/09/08 14:53:08;;;;;;;6.35;3.95;;;;;;;;;;6240145;23;20315;-54
2021/09/08 14:55:34;;;;;;;4.60;3.77;;;;;;;;;;6240504;23;20345;-55
2021/09/08 14:58:01;;;;;;;4.85;4.07;;;;;;;;;;6240748;23;20370;-55
2021/09/08 15:00:27;;;;;;;5.18;3.90;;;;;;;;;;6240670;23;20329;-56
2021/09/08 15:02:56;;;;;;;4.57;3.80;;;;;;;;;;6240308;23;20443;-55
2021/09/08 15:05:26;;;;;;;5.97;3.60;;;;;;;;;;6232099;23;20357;-54
2021/09/08 15:07:52;;;;;;;5.45;3.70;;;;;;;;;;6238926;23;20365;-52
2021/09/08 15:10:18;;;;;;;4.60;3.80;;;;;;;;;;6239460;23;20338;-55
2021/09/08 15:12:44;;;;;;;3.93;3.50;;;;;;;;;;6212192;23;20362;-51
2021/09/08 15:15:13;;;;;;;4.63;3.70;;;;;;;;;;6238725;23;20457;-54
2021/09/08 15:17:40;;;;;;;3.95;3.42;;;;;;;;;;6239810;23;20350;-53
2021/09/08 15:20:06;;;;;;;4.38;3.60;;;;;;;;;;6239203;23;20326;-55
2021/09/08 15:22:32;;;;;;;4.72;4.10;;;;;;;;;;6240590;23;20433;-58
2021/09/08 15:24:58;;;;;;;5.03;4.00;;;;;;;;;;6240903;23;20334;-57
2021/09/08 15:27:25;;;;;;;4.93;3.80;;;;;;;;;;6240987;23;20330;-56
2021/09/08 15:29:52;;;;;;;4.55;4.05;;;;;;;;;;6241018;23;20358;-49
2021/09/08 15:32:18;;;;;;;5.60;3.78;;;;;;;;;;6241773;23;20318;-50
2021/09/08 15:34:45;;;;;;;4.15;3.60;;;;;;;;;;6240889;23;20753;-51
2021/09/08 15:37:11;;;;;;;4.30;3.65;;;;;;;;;;6214570;23;20350;-48
2021/09/08 15:39:38;;;;;;;4.30;3.58;;;;;;;;;;6241136;23;20405;-50
2021/09/08 15:42:06;;;;;;;4.78;4.00;;;;;;;;;;6241825;23;20362;-51
2021/09/08 15:44:32;;;;;;;4.00;3.50;;;;;;;;;;6241899;23;20365;-49
2021/09/08 15:46:58;;;;;;;4.50;3.70;;;;;;;;;;6241653;23;20364;-50
2021/09/08 15:49:28;;;;;;;4.13;3.50;;;;;;;;;;6242438;23;20655;-49
2021/09/08 15:51:54;;;;;;;4.83;3.70;;;;;;;;;;6242098;23;20333;-45
2021/09/08 15:54:20;;;;;;;5.17;3.50;;;;;;;;;;6241107;23;20330;-48
2021/09/08 15:56:47;;;;;;;4.10;3.65;;;;;;;;;;6242444;23;20337;-48
2021/09/08 15:59:13;;;;;;;4.70;3.50;;;;;;;;;;6215018;23;20349;-48
2021/09/08 16:01:39;;;;;;;4.55;3.45;;;;;;;;;;6241459;23;20370;-51
2021/09/08 16:04:05;;;;;;;4.28;3.58;;;;;;;;;;6240305;23;20385;-54
2021/09/08 16:06:31;;;;;;;4.53;3.50;;;;;;;;;;6240543;23;20838;-56
2021/09/08 16:08:57;;;;;;;4.40;3.50;;;;;;;;;;6241585;23;20436;-53
2021/09/08 16:11:28;;;;;;;4.33;3.50;;;;;;;;;;6240313;23;20808;-53
2021/09/08 16:13:55;;;;;;;4.03;3.00;;;;;;;;;;6239823;23;20361;-56
2021/09/08 16:16:21;;;;;;;4.00;3.25;;;;;;;;;;6239847;23;20369;-56
2021/09/08 16:18:47;;;;;;;4.78;3.60;;;;;;;;;;6239765;23;20936;-51
2021/09/08 16:21:13;;;;;;;4.30;3.20;;;;;;;;;;6240114;23;20326;-57
2021/09/08 16:23:40;;;;;;;4.72;3.33;;;;;;;;;;6238326;23;20699;-58
2021/09/08 16:26:06;;;;;;;4.63;3.55;;;;;;;;;;6240499;23;20399;-53
2021/09/08 16:28:32;;;;;;;5.93;3.47;;;;;;;;;;6212376;23;20341;-61
2021/09/08 16:30:58;;;;;;;4.18;3.20;;;;;;;;;;6239791;23;20788;-57
2021/09/08 16:33:24;;;;;;;3.78;3.38;;;;;;;;;;6238805;23;20385;-57
2021/09/08 16:35:50;;;;;;;3.88;3.40;;;;;;;;;;6236639;23;20597;-56
2021/09/08 16:38:17;;;;;;;5.60;3.50;;;;;;;;;;6210847;23;20352;-58
2021/09/08 16:40:45;;;;;;;4.07;3.63;;;;;;;;;;6210940;23;20457;-57
2021/09/08 16:43:11;;;;;;;4.60;3.70;;;;;;;;;;6210578;23;20419;-58
2021/09/08 16:45:41;;;;;;;4.15;3.50;;;;;;;;;;6210533;23;20435;-58
2021/09/08 16:48:10;;;;;;;4.80;3.20;;;;;;;;;;6238160;23;20394;-53
2021/09/08 16:50:37;;;;;;;4.07;3.40;;;;;;;;;;6239734;23;20432;-56
2021/09/08 16:53:03;;;;;;;4.18;3.50;;;;;;;;;;6240260;23;20447;-54
2021/09/08 16:55:30;;;;;;;7.88;4.07;;;;;;;;;;6213275;23;20343;-45
2021/09/08 16:57:59;;;;;;;5.65;3.63;;;;;;;;;;6239669;23;20353;-49
2021/09/08 17:00:25;;;;;;;9.82;3.97;;;;;;;;;;6240100;23;20322;-40
2021/09/08 17:02:51;;;;;;;7.20;4.00;;;;;;;;;;6240062;23;20396;-44
2021/09/08 17:05:17;;;;;;;6.15;3.78;;;;;;;;;;6241103;23;20345;-45
2021/09/08 17:07:43;;;;;;;5.18;3.75;;;;;;;;;;6241820;23;20334;-47
2021/09/08 17:10:10;;;;;;;4.45;3.80;;;;;;;;;;6242374;23;20334;-48
2021/09/08 17:12:36;;;;;;;8.93;4.35;;;;;;;;;;6241720;23;20333;-45
2021/09/08 17:15:03;;;;;;;4.07;3.58;;;;;;;;;;6241029;23;20698;-45
2021/09/08 17:17:30;;;;;;;5.22;3.80;;;;;;;;;;6241911;23;20358;-48
2021/09/08 17:19:56;;;;;;;4.80;3.88;;;;;;;;;;6241256;23;20330;-44
2021/09/08 17:22:25;;;;;;;4.82;3.65;;;;;;;;;;6242273;23;20373;-44
2021/09/08 17:24:51;;;;;;;4.80;3.60;;;;;;;;;;6242626;23;20864;-41
2021/09/08 17:27:17;;;;;;;4.50;3.92;;;;;;;;;;6242777;23;20893;-44
2021/09/08 17:29:44;;;;;;;4.70;3.70;;;;;;;;;;6242882;23;20392;-45
2021/09/08 17:32:11;;;;;;;4.50;3.90;;;;;;;;;;6242984;23;20337;-44
2021/09/08 17:34:38;;;;;;;4.83;3.77;;;;;;;;;;6215937;23;20385;-43
2021/09/08 17:37:04;;;;;;;6.35;3.97;;;;;;;;;;6242221;23;20856;-43
2021/09/08 17:39:31;;;;;;;5.30;4.03;;;;;;;;;;6242733;23;20421;-44
2021/09/08 17:44:39;;;;;;;4.95;4.13;;;;;;;;;;6242414;23;20334;-44
2021/09/08 17:47:05;;;;;;;5.00;3.83;;;;;;;;;;6242116;23;20333;-44
2021/09/08 17:49:32;;;;;;;4.95;4.00;;;;;;;;;;6242545;23;20433;-43
2021/09/08 17:52:01;;;;;;;4.33;3.93;;;;;;;;;;6242606;23;20337;-44
2021/09/08 17:54:27;;;;;;;5.28;4.20;;;;;;;;;;6241657;23;20335;-43
2021/09/08 17:56:53;;;;;;;4.80;4.20;;;;;;;;;;6241719;23;20342;-43
2021/09/08 17:59:19;;;;;;;4.50;4.10;;;;;;;;;;6240420;23;20326;-43
2021/09/08 18:01:45;;;;;;;5.50;4.30;;;;;;;;;;6241446;23;20480;-44
2021/09/08 18:04:16;;;;;;;4.78;4.00;;;;;;;;;;6237941;23;20361;-45
2021/09/08 18:06:42;;;;;;;5.50;4.43;;;;;;;;;;6240889;23;20423;-44
2021/09/08 18:09:08;;;;;;;4.78;4.10;;;;;;;;;;6240704;23;20352;-43
2021/09/08 18:11:34;;;;;;;4.95;3.95;;;;;;;;;;6240585;23;20334;-45
2021/09/08 18:14:01;;;;;;;6.10;4.43;;;;;;;;;;6240163;23;20399;-45
2021/09/08 18:16:27;;;;;;;5.00;4.20;;;;;;;;;;6239489;23;20817;-44
2021/09/08 18:18:55;;;;;;;4.97;4.00;;;;;;;;;;6239927;23;20345;-44
2021/09/08 18:21:23;;;;;;;4.78;4.20;;;;;;;;;;6240238;23;20327;-44
2021/09/08 18:23:49;;;;;;;4.97;4.00;;;;;;;;;;6240580;23;20404;-51
2021/09/08 18:26:15;;;;;;;4.60;4.10;;;;;;;;;;6240462;23;20869;-45
2021/09/08 18:28:41;;;;;;;4.50;3.83;;;;;;;;;;6240127;23;20346;-44
2021/09/08 18:31:07;;;;;;;4.70;3.90;;;;;;;;;;6241254;23;20425;-44
2021/09/08 18:33:33;;;;;;;5.00;4.10;;;;;;;;;;6240628;23;20376;-44
2021/09/08 18:36:00;;;;;;;5.10;4.10;;;;;;;;;;6240794;23;20801;-44
2021/09/08 18:38:26;;;;;;;7.03;4.20;;;;;;;;;;6240943;23;20356;-44
2021/09/08 18:40:53;;;;;;;5.45;4.30;;;;;;;;;;6240711;23;20337;-44
2021/09/08 18:43:19;;;;;;;4.78;4.10;;;;;;;;;;6240934;23;20380;-45
2021/09/08 18:45:46;;;;;;;5.10;4.20;;;;;;;;;;6240405;23;20336;-43
2021/09/08 18:48:12;;;;;;;5.05;4.40;;;;;;;;;;6239877;23;20913;-44
2021/09/08 18:50:38;;;;;;;4.75;4.18;;;;;;;;;;6240569;23;20334;-44
2021/09/08 18:53:04;;;;;;;5.03;4.38;;;;;;;;;;6240464;23;20805;-44
2021/09/08 18:55:32;;;;;;;5.90;4.55;;;;;;;;;;6240353;23;20336;-49
2021/09/08 18:57:59;;;;;;;6.13;4.80;;;;;;;;;;6240503;23;20330;-44
2021/09/08 19:00:25;;;;;;;5.97;4.90;;;;;;;;;;6240094;23;20356;-43
2021/09/08 19:02:51;;;;;;;5.63;4.87;;;;;;;;;;6239585;23;21329;-44
2021/09/08 19:05:18;;;;;;;6.37;5.10;;;;;;;;;;6240223;23;20369;-44
2021/09/08 19:07:44;;;;;;;5.32;4.50;;;;;;;;;;6240715;23;20350;-44
2021/09/08 19:10:11;;;;;;;6.45;4.55;;;;;;;;;;6239613;23;20402;-47
2021/09/08 19:12:37;;;;;;;5.40;4.40;;;;;;;;;;6239688;23;20322;-44
2021/09/08 19:15:04;;;;;;;5.63;4.20;;;;;;;;;;6212594;23;20362;-44
2021/09/08 19:17:30;;;;;;;5.90;4.30;;;;;;;;;;6240186;23;21104;-44
2021/09/08 19:19:56;;;;;;;4.82;4.10;;;;;;;;;;6211840;23;20362;-44
2021/09/08 19:22:22;;;;;;;5.25;4.50;;;;;;;;;;6239625;23;20370;-43
2021/09/08 19:24:48;;;;;;;6.05;4.47;;;;;;;;;;6239100;23;20322;-44
2021/09/08 19:27:14;;;;;;;4.80;3.80;;;;;;;;;;6211596;23;20346;-44
2021/09/08 19:29:40;;;;;;;5.70;4.40;;;;;;;;;;6238743;23;20366;-43
2021/09/08 19:32:06;;;;;;;4.95;4.10;;;;;;;;;;6240181;23;20332;-46
2021/09/08 19:34:32;;;;;;;5.80;4.20;;;;;;;;;;6238022;23;20342;-44
2021/09/08 19:36:59;;;;;;;5.82;4.22;;;;;;;;;;6239929;23;20408;-45
2021/09/08 19:39:29;;;;;;;5.03;4.22;;;;;;;;;;6239439;23;20350;-44
2021/09/08 19:41:56;;;;;;;6.28;4.70;;;;;;;;;;6239074;23;20426;-43
2021/09/08 19:44:22;;;;;;;6.05;4.43;;;;;;;;;;6239156;23;20334;-46
2021/09/08 19:46:48;;;;;;;5.38;4.00;;;;;;;;;;6238358;23;20472;-44
2021/09/08 19:49:14;;;;;;;5.03;3.80;;;;;;;;;;6239228;23;20756;-44
2021/09/08 19:51:40;;;;;;;5.68;3.90;;;;;;;;;;6239066;23;20346;-47
2021/09/08 19:54:06;;;;;;;4.90;3.60;;;;;;;;;;6239385;23;20342;-44
2021/09/08 19:56:32;;;;;;;4.53;3.60;;;;;;;;;;6238582;23;20330;-46
2021/09/08 19:58:59;;;;;;;4.57;3.67;;;;;;;;;;6238651;23;20334;-45
2021/09/08 20:01:25;;;;;;;4.50;3.35;;;;;;;;;;6239535;23;20405;-44
2021/09/08 20:03:51;;;;;;;5.03;3.40;;;;;;;;;;6239150;23;20461;-43
2021/09/08 20:06:17;;;;;;;4.63;3.42;;;;;;;;;;6237803;23;20329;-45
2021/09/08 20:08:43;;;;;;;4.70;3.28;;;;;;;;;;6238757;23;20338;-44
2021/09/08 20:11:10;;;;;;;5.80;3.55;;;;;;;;;;6239543;23;20326;-44
2021/09/08 20:13:36;;;;;;;5.40;3.60;;;;;;;;;;6239120;23;21632;-44
2021/09/08 20:16:03;;;;;;;4.60;3.30;;;;;;;;;;6239238;23;20373;-44
2021/09/08 20:18:30;;;;;;;4.45;3.25;;;;;;;;;;6239265;23;20325;-45
2021/09/08 20:20:56;;;;;;;4.13;3.35;;;;;;;;;;6240038;23;20315;-44
2021/09/08 20:23:22;;;;;;;3.97;3.23;;;;;;;;;;6239533;23;20397;-44
2021/09/08 20:25:49;;;;;;;5.35;3.30;;;;;;;;;;6239866;23;20341;-45
2021/09/08 20:28:15;;;;;;;4.85;3.08;;;;;;;;;;6239412;23;20771;-47
2021/09/08 20:30:41;;;;;;;5.18;3.40;;;;;;;;;;6239675;23;20396;-48
2021/09/08 20:33:09;;;;;;;4.55;3.10;;;;;;;;;;6239783;23;20425;-47
2021/09/08 20:35:35;;;;;;;3.80;2.92;;;;;;;;;;6239391;23;20334;-44
2021/09/08 20:38:01;;;;;;;5.28;3.17;;;;;;;;;;6239188;23;20357;-49
2021/09/08 20:40:29;;;;;;;4.72;2.97;;;;;;;;;;6238249;23;20330;-47
2021/09/08 20:42:55;;;;;;;4.45;2.80;;;;;;;;;;6239311;23;20377;-46
2021/09/08 20:45:21;;;;;;;3.95;2.70;;;;;;;;;;6239124;23;20694;-44
2021/09/08 20:47:47;;;;;;;5.90;2.90;;;;;;;;;;6238764;23;20327;-48
2021/09/08 20:50:14;;;;;;;4.40;2.88;;;;;;;;;;6238808;23;20354;-49
2021/09/08 20:52:40;;;;;;;4.87;2.70;;;;;;;;;;6238848;23;20846;-45
2021/09/08 20:55:08;;;;;;;3.72;2.70;;;;;;;;;;6238361;23;20436;-46
2021/09/08 20:57:34;;;;;;;4.13;2.75;;;;;;;;;;6238709;23;20341;-47
2021/09/08 21:00:01;;;;;;;6.13;2.97;;;;;;;;;;6235875;23;20389;-47
2021/09/08 21:02:27;;;;;;;5.00;3.08;;;;;;;;;;6236443;23;20418;-47
2021/09/08 21:04:53;;;;;;;4.33;2.73;;;;;;;;;;6239011;23;20400;-46
2021/09/08 21:07:19;;;;;;;4.80;2.83;;;;;;;;;;6239653;23;20323;-47
2021/09/08 21:09:45;;;;;;;4.57;2.75;;;;;;;;;;6238555;23;20921;-46
2021/09/08 21:12:11;;;;;;;4.13;2.85;;;;;;;;;;6239700;23;20322;-46
2021/09/08 21:14:38;;;;;;;3.10;2.50;;;;;;;;;;6211395;23;20382;-48
2021/09/08 21:17:04;;;;;;;4.78;2.83;;;;;;;;;;6239473;23;20334;-46
2021/09/08 21:19:31;;;;;;;3.95;2.70;;;;;;;;;;6239158;23;20357;-46
2021/09/08 21:21:59;;;;;;;4.32;2.50;;;;;;;;;;6238725;23;20358;-49
2021/09/08 21:24:25;;;;;;;4.13;2.60;;;;;;;;;;6238949;23;20375;-45
2021/09/08 21:26:51;;;;;;;3.90;2.47;;;;;;;;;;6239413;23;20659;-46
2021/09/08 21:29:19;;;;;;;4.43;2.70;;;;;;;;;;6212313;23;20429;-49
2021/09/08 21:31:45;;;;;;;4.22;2.83;;;;;;;;;;6212369;23;20372;-47
2021/09/08 21:34:11;;;;;;;4.70;2.80;;;;;;;;;;6239384;23;20726;-41
2021/09/08 21:36:37;;;;;;;7.25;2.58;;;;;;;;;;6212035;23;20350;-41
2021/09/08 21:39:03;;;;;;;5.45;2.75;;;;;;;;;;6238112;23;20338;-41
2021/09/08 21:41:30;;;;;;;5.40;2.70;;;;;;;;;;6239041;23;20341;-42
2021/09/08 21:43:56;;;;;;;4.82;2.53;;;;;;;;;;6239576;23;20401;-42
2021/09/08 21:46:22;;;;;;;4.63;2.70;;;;;;;;;;6239669;23;20323;-42
2021/09/08 21:48:48;;;;;;;4.47;2.63;;;;;;;;;;6239605;23;20348;-42
